createdAt,value
2023-05-14T00:17:04.142Z,18.95
2023-05-14T00:19:30.926Z,23.33
2023-05-14T00:21:57.780Z,14.57
2023-05-14T00:24:24.805Z,12.75
2023-05-14T00:26:51.622Z,14.65
2023-05-14T00:29:18.430Z,17.80
2023-05-14T00:31:45.405Z,16.52
2023-05-14T00:34:12.319Z,16.25
2023-05-14T00:36:39.145Z,15.05
2023-05-14T00:39:05.987Z,12.38
2023-05-14T00:41:33.037Z,16.40
2023-05-14T00:43:59.857Z,12.68
2023-05-14T00:46:27.350Z,16.73
2023-05-14T00:48:54.462Z,16.42
2023-05-14T00:51:22.444Z,20.35
2023-05-14T00:53:50.255Z,14.40
2023-05-14T00:56:17.786Z,16.38
2023-05-14T00:58:44.682Z,14.48
2023-05-14T01:01:15.109Z,14.10
2023-05-14T01:03:42.914Z,18.63
2023-05-14T01:06:22.883Z,17.88
2023-05-14T01:09:25.619Z,13.05
2023-05-14T01:12:11.003Z,22.02
2023-05-14T01:14:56.726Z,20.77
2023-05-14T01:17:29.485Z,21.15
2023-05-14T01:19:57.807Z,19.52
2023-05-14T01:22:24.624Z,16.25
2023-05-14T01:24:51.463Z,23.13
2023-05-14T01:27:43.511Z,17.70
2023-05-14T01:30:28.465Z,18.33
2023-05-14T01:32:58.238Z,20.48
2023-05-14T01:35:28.487Z,26.48
2023-05-14T01:37:58.334Z,25.98
2023-05-14T01:40:26.098Z,14.05
2023-05-14T01:42:54.176Z,22.23
2023-05-14T01:45:22.362Z,17.42
2023-05-14T01:47:49.440Z,15.50
2023-05-14T01:50:16.718Z,19.50
2023-05-14T01:52:43.724Z,22.40
2023-05-14T01:55:10.954Z,17.60
2023-05-14T01:57:37.820Z,29.48
2023-05-14T02:00:05.278Z,15.77
2023-05-14T02:02:32.188Z,19.85
2023-05-14T02:04:59.099Z,27.35
2023-05-14T02:07:25.923Z,18.60
2023-05-14T02:09:52.749Z,18.88
2023-05-14T02:12:19.578Z,21.20
2023-05-14T02:14:46.599Z,20.17
2023-05-14T02:17:15.891Z,19.80
2023-05-14T02:19:42.727Z,17.55
2023-05-14T02:22:09.566Z,17.95
2023-05-14T02:24:36.534Z,18.13
2023-05-14T02:27:03.534Z,15.75
2023-05-14T02:29:30.433Z,24.70
2023-05-14T02:31:57.526Z,23.25
2023-05-14T02:34:25.548Z,19.55
2023-05-14T02:36:52.452Z,18.67
2023-05-14T02:39:19.267Z,19.77
2023-05-14T02:41:46.084Z,18.85
2023-05-14T02:44:12.939Z,23.98
2023-05-14T02:46:39.883Z,19.92
2023-05-14T02:49:06.742Z,22.08
2023-05-14T02:51:33.574Z,17.27
2023-05-14T02:54:00.471Z,20.55
2023-05-14T02:56:27.330Z,39.15
2023-05-14T02:58:54.160Z,21.30
2023-05-14T03:01:21.710Z,19.80
2023-05-14T03:03:49.398Z,18.48
2023-05-14T03:06:16.694Z,18.58
2023-05-14T03:08:43.542Z,22.95
2023-05-14T03:11:10.476Z,22.27
2023-05-14T03:13:37.261Z,21.63
2023-05-14T03:16:04.146Z,27.25
2023-05-14T03:18:31.106Z,20.10
2023-05-14T03:20:57.924Z,19.00
2023-05-14T03:23:24.786Z,19.13
2023-05-14T03:25:52.507Z,21.15
2023-05-14T03:28:19.351Z,14.98
2023-05-14T03:30:46.269Z,25.38
2023-05-14T03:33:13.126Z,19.90
2023-05-14T03:35:40.509Z,18.30
2023-05-14T03:38:07.574Z,21.50
2023-05-14T03:40:34.461Z,25.25
2023-05-14T03:43:01.328Z,20.60
2023-05-14T03:45:30.334Z,27.40
2023-05-14T03:47:57.322Z,19.88
2023-05-14T03:50:25.811Z,24.58
2023-05-14T03:52:53.442Z,20.88
2023-05-14T03:55:20.788Z,20.42
2023-05-14T03:57:50.754Z,23.15
2023-05-14T04:00:17.738Z,17.13
2023-05-14T04:02:44.837Z,25.58
2023-05-14T04:05:11.974Z,21.40
2023-05-14T04:07:38.802Z,27.23
2023-05-14T04:10:06.382Z,20.15
2023-05-14T04:12:33.191Z,20.80
2023-05-14T04:14:59.998Z,20.33
2023-05-14T04:17:26.935Z,19.08
2023-05-14T04:19:53.832Z,20.00
2023-05-14T04:22:20.653Z,23.98
2023-05-14T04:24:47.503Z,19.23
2023-05-14T04:27:21.624Z,20.08
2023-05-14T04:29:49.703Z,19.63
2023-05-14T04:32:17.763Z,21.20
2023-05-14T04:34:44.692Z,21.40
2023-05-14T04:37:11.532Z,20.25
2023-05-14T04:39:38.492Z,22.20
2023-05-14T04:42:06.821Z,20.73
2023-05-14T04:44:34.939Z,18.48
2023-05-14T04:47:02.183Z,22.85
2023-05-14T04:49:29.370Z,25.08
2023-05-14T04:51:56.254Z,24.25
2023-05-14T04:54:23.204Z,23.67
2023-05-14T04:56:50.699Z,20.92
2023-05-14T04:59:17.568Z,22.80
2023-05-14T05:01:45.877Z,18.60
2023-05-14T05:04:13.185Z,26.42
2023-05-14T05:06:40.275Z,20.70
2023-05-14T05:09:08.692Z,17.65
2023-05-14T05:11:35.564Z,22.23
2023-05-14T05:14:02.357Z,19.77
2023-05-14T05:16:29.174Z,22.50
2023-05-14T05:18:56.488Z,22.15
2023-05-14T05:21:23.469Z,20.95
2023-05-14T05:23:51.737Z,19.98
2023-05-14T05:26:18.539Z,19.40
2023-05-14T05:28:45.624Z,18.40
2023-05-14T05:31:12.699Z,23.83
2023-05-14T05:33:39.729Z,23.80
2023-05-14T05:36:06.711Z,23.90
2023-05-14T05:38:33.518Z,25.48
2023-05-14T05:41:00.367Z,25.00
2023-05-14T05:43:28.583Z,27.05
2023-05-14T05:45:55.517Z,20.23
2023-05-14T05:48:22.372Z,21.00
2023-05-14T05:50:50.229Z,25.95
2023-05-14T05:53:17.610Z,18.55
2023-05-14T05:55:44.414Z,17.08
2023-05-14T05:58:11.257Z,20.55
2023-05-14T06:00:38.134Z,21.00
2023-05-14T06:03:04.990Z,17.13
2023-05-14T06:05:31.866Z,16.92
2023-05-14T06:07:58.808Z,25.45
2023-05-14T06:10:25.715Z,19.60
2023-05-14T06:12:52.679Z,19.13
2023-05-14T06:15:19.602Z,29.95
2023-05-14T06:17:46.610Z,21.85
2023-05-14T06:20:13.615Z,22.40
2023-05-14T06:22:40.561Z,23.58
2023-05-14T06:25:08.184Z,18.20
2023-05-14T06:27:34.988Z,19.52
2023-05-14T06:30:01.827Z,26.60
2023-05-14T06:32:29.248Z,20.35
2023-05-14T06:34:56.085Z,20.92
2023-05-14T06:37:22.900Z,20.58
2023-05-14T06:39:52.519Z,17.85
2023-05-14T06:42:19.364Z,16.33
2023-05-14T06:44:46.160Z,16.63
2023-05-14T06:47:13.106Z,17.58
2023-05-14T06:49:40.272Z,16.88
2023-05-14T06:52:08.277Z,17.50
2023-05-14T06:54:35.112Z,17.65
2023-05-14T06:57:02.012Z,18.98
2023-05-14T06:59:28.960Z,17.15
2023-05-14T07:01:58.471Z,19.45
2023-05-14T07:04:25.530Z,19.52
2023-05-14T07:06:52.437Z,18.83
2023-05-14T07:09:19.719Z,17.30
2023-05-14T07:11:46.514Z,15.52
2023-05-14T07:14:13.370Z,17.23
2023-05-14T07:16:41.676Z,20.58
2023-05-14T07:19:08.941Z,19.98
2023-05-14T07:21:36.225Z,17.85
2023-05-14T07:24:03.432Z,17.80
2023-05-14T07:26:30.634Z,18.15
2023-05-14T07:28:57.945Z,14.63
2023-05-14T07:31:24.774Z,15.80
2023-05-14T07:33:51.648Z,13.68
2023-05-14T07:36:18.588Z,18.00
2023-05-14T07:38:45.469Z,16.10
2023-05-14T07:41:12.292Z,16.40
2023-05-14T07:43:40.501Z,16.60
2023-05-14T07:46:07.462Z,15.88
2023-05-14T07:48:34.357Z,13.45
2023-05-14T07:51:01.249Z,15.73
2023-05-14T07:53:28.100Z,14.23
2023-05-14T07:55:55.114Z,11.52
2023-05-14T07:58:22.106Z,14.30
2023-05-14T08:00:49.049Z,15.02
2023-05-14T08:03:16.099Z,14.05
2023-05-14T08:05:43.087Z,12.73
2023-05-14T08:08:10.694Z,13.10
2023-05-14T08:10:37.507Z,16.48
2023-05-14T08:13:04.437Z,14.45
2023-05-14T08:15:31.520Z,13.68
2023-05-14T08:18:03.401Z,9.77
2023-05-14T08:20:31.206Z,11.15
2023-05-14T08:22:58.333Z,13.05
2023-05-14T08:25:25.144Z,16.95
2023-05-14T08:27:53.647Z,14.68
2023-05-14T08:30:21.869Z,12.38
2023-05-14T08:32:48.883Z,14.57
2023-05-14T08:35:16.257Z,12.95
2023-05-14T08:37:43.106Z,11.10
2023-05-14T08:40:10.608Z,14.18
2023-05-14T08:42:43.170Z,8.95
2023-05-14T08:45:14.076Z,9.75
2023-05-14T08:47:41.018Z,14.15
2023-05-14T08:50:08.416Z,15.52
2023-05-14T08:52:36.054Z,12.05
2023-05-14T08:55:06.891Z,16.10
2023-05-14T08:57:34.502Z,12.00
2023-05-14T09:00:05.859Z,18.85
2023-05-14T09:02:33.143Z,10.82
2023-05-14T09:05:01.522Z,11.60
2023-05-14T09:07:28.653Z,12.82
2023-05-14T09:09:55.949Z,10.18
2023-05-14T09:12:23.234Z,12.48
2023-05-14T09:14:51.161Z,10.27
2023-05-14T09:17:18.934Z,11.40
2023-05-14T09:19:49.824Z,7.53
2023-05-14T09:22:18.293Z,12.75
2023-05-14T09:24:46.386Z,12.07
2023-05-14T09:27:22.101Z,7.45
2023-05-14T09:29:48.950Z,9.68
2023-05-14T09:32:15.862Z,7.28
2023-05-14T09:34:42.690Z,7.05
2023-05-14T09:37:10.231Z,8.20
2023-05-14T09:39:38.142Z,7.30
2023-05-14T09:42:05.684Z,6.95
2023-05-14T09:44:32.576Z,14.63
2023-05-14T09:46:59.562Z,8.50
2023-05-14T09:49:26.458Z,8.77
2023-05-14T09:51:53.635Z,8.98
2023-05-14T09:54:20.460Z,10.00
2023-05-14T09:56:47.303Z,8.05
2023-05-14T09:59:14.184Z,12.23
2023-05-14T10:01:44.173Z,7.10
2023-05-14T10:04:11.860Z,6.80
2023-05-14T10:06:39.924Z,10.90
2023-05-14T10:09:19.727Z,9.25
2023-05-14T10:11:52.758Z,7.68
2023-05-14T10:14:33.543Z,7.63
2023-05-14T10:17:01.789Z,14.73
2023-05-14T10:19:33.527Z,9.95
2023-05-14T10:22:05.103Z,7.13
2023-05-14T10:24:32.657Z,12.07
2023-05-14T10:27:00.050Z,8.68
2023-05-14T10:29:37.558Z,7.82
2023-05-14T10:32:06.846Z,10.73
2023-05-14T10:34:37.231Z,8.43
2023-05-14T10:37:06.766Z,8.68
2023-05-14T10:39:51.802Z,10.85
2023-05-14T10:42:32.461Z,10.52
2023-05-14T10:45:10.527Z,9.20
2023-05-14T10:47:48.738Z,7.53
2023-05-14T10:50:17.518Z,11.82
2023-05-14T10:52:45.706Z,9.90
2023-05-14T10:55:16.831Z,9.25
2023-05-14T10:57:45.582Z,6.85
2023-05-14T11:00:14.483Z,13.57
2023-05-14T11:02:43.613Z,6.28
2023-05-14T11:05:14.326Z,7.85
2023-05-14T11:07:46.720Z,8.48
2023-05-14T11:10:19.263Z,8.55
2023-05-14T11:12:48.848Z,10.98
2023-05-14T11:15:20.211Z,6.82
2023-05-14T11:17:48.568Z,11.93
2023-05-14T11:20:16.765Z,9.45
2023-05-14T11:22:44.978Z,6.63
2023-05-14T11:25:16.999Z,7.25
2023-05-14T11:27:45.702Z,8.65
2023-05-14T11:30:13.671Z,7.55
2023-05-14T11:32:41.379Z,7.15
2023-05-14T11:35:08.521Z,7.43
2023-05-14T11:37:35.684Z,10.52
2023-05-14T11:40:02.628Z,4.97
2023-05-14T11:42:29.599Z,6.20
2023-05-14T11:44:56.630Z,6.60
2023-05-14T11:47:26.746Z,7.25
2023-05-14T11:49:53.729Z,6.13
2023-05-14T11:52:21.955Z,6.10
2023-05-14T11:54:51.544Z,4.32
2023-05-14T11:57:22.720Z,9.40
2023-05-14T11:59:56.149Z,6.88
2023-05-14T12:02:23.461Z,5.43
2023-05-14T12:04:52.206Z,6.55
2023-05-14T12:07:19.464Z,5.47
2023-05-14T12:09:51.210Z,6.18
2023-05-14T12:12:20.185Z,7.57
2023-05-14T12:14:47.454Z,3.97
2023-05-14T12:17:21.756Z,5.40
2023-05-14T12:19:50.829Z,4.30
2023-05-14T12:22:19.717Z,3.67
2023-05-14T12:25:00.058Z,3.33
2023-05-14T12:27:29.711Z,8.25
2023-05-14T12:30:19.933Z,9.00
2023-05-14T12:32:51.638Z,9.20
2023-05-14T12:35:21.292Z,3.28
2023-05-14T12:37:48.215Z,4.25
2023-05-14T12:40:15.352Z,8.15
2023-05-14T12:42:42.235Z,5.55
2023-05-14T12:45:09.354Z,4.30
2023-05-14T12:47:37.162Z,6.07
2023-05-14T12:50:06.025Z,6.13
2023-05-14T12:52:38.575Z,8.50
2023-05-14T12:55:09.967Z,4.47
2023-05-14T12:57:39.053Z,4.78
2023-05-14T13:00:08.186Z,2.42
2023-05-14T13:02:42.905Z,3.05
2023-05-14T13:05:11.992Z,4.72
2023-05-14T13:07:39.273Z,4.22
2023-05-14T13:10:06.859Z,4.07
2023-05-14T13:12:33.990Z,3.15
2023-05-14T13:15:00.905Z,3.63
2023-05-14T13:17:27.981Z,10.73
2023-05-14T13:19:55.003Z,7.78
2023-05-14T13:22:21.848Z,6.43
2023-05-14T13:24:48.620Z,12.90
2023-05-14T13:27:15.484Z,7.35
2023-05-14T13:29:42.309Z,32.15
2023-05-14T13:32:09.179Z,6.05
2023-05-14T13:34:36.569Z,10.38
2023-05-14T13:37:04.038Z,9.50
2023-05-14T13:39:31.030Z,6.07
2023-05-14T13:41:57.995Z,5.05
2023-05-14T13:44:25.118Z,3.03
2023-05-14T13:46:52.342Z,5.70
2023-05-14T13:49:19.376Z,4.45
2023-05-14T13:51:46.231Z,4.85
2023-05-14T13:54:13.123Z,4.63
2023-05-14T13:56:40.212Z,4.65
2023-05-14T13:59:07.200Z,7.10
2023-05-14T14:01:34.167Z,7.55
2023-05-14T14:04:01.077Z,2.85
2023-05-14T14:06:27.915Z,5.03
2023-05-14T14:08:54.935Z,3.20
2023-05-14T14:11:22.035Z,4.30
2023-05-14T14:13:48.943Z,4.45
2023-05-14T14:16:16.338Z,3.28
2023-05-14T14:18:43.597Z,5.32
2023-05-14T14:21:10.979Z,8.20
2023-05-14T14:23:38.061Z,4.32
2023-05-14T14:26:04.901Z,2.55
2023-05-14T14:28:31.760Z,7.93
2023-05-14T14:30:58.583Z,2.67
2023-05-14T14:33:25.734Z,6.32
2023-05-14T14:35:52.960Z,5.72
2023-05-14T14:38:19.932Z,4.70
2023-05-14T14:40:46.925Z,5.18
2023-05-14T14:43:13.856Z,5.53
2023-05-14T14:45:46.849Z,3.22
2023-05-14T14:48:37.584Z,3.65
2023-05-14T14:51:06.228Z,9.60
2023-05-14T14:53:34.475Z,6.00
2023-05-14T14:56:01.728Z,2.90
2023-05-14T14:58:29.297Z,4.07
2023-05-14T15:00:57.621Z,8.30
2023-05-14T15:03:25.309Z,4.55
2023-05-14T15:05:53.506Z,3.92
2023-05-14T15:08:24.645Z,4.88
2023-05-14T15:10:51.618Z,7.07
2023-05-14T15:13:19.263Z,5.10
2023-05-14T15:15:46.087Z,7.78
2023-05-14T15:18:13.136Z,3.33
2023-05-14T15:20:40.304Z,6.10
2023-05-14T15:23:07.613Z,7.68
2023-05-14T15:25:34.511Z,3.58
2023-05-14T15:28:01.409Z,5.60
2023-05-14T15:30:28.284Z,6.18
2023-05-14T15:32:56.046Z,2.30
2023-05-14T15:35:23.353Z,3.42
2023-05-14T15:37:50.450Z,5.20
2023-05-14T15:40:18.945Z,3.75
2023-05-14T15:42:46.926Z,3.83
2023-05-14T15:45:14.141Z,6.78
2023-05-14T15:47:41.833Z,2.10
2023-05-14T15:50:09.351Z,10.70
2023-05-14T15:52:36.565Z,3.13
2023-05-14T15:55:06.074Z,4.57
2023-05-14T15:57:33.071Z,13.65
2023-05-14T16:00:00.090Z,4.30
2023-05-14T16:02:30.295Z,4.05
2023-05-14T16:04:57.238Z,4.38
2023-05-14T16:07:24.307Z,3.60
2023-05-14T16:09:51.798Z,4.45
2023-05-14T16:12:18.831Z,6.30
2023-05-14T16:14:45.726Z,5.55
2023-05-14T16:17:12.612Z,3.78
2023-05-14T16:19:39.700Z,5.90
2023-05-14T16:22:06.644Z,3.88
2023-05-14T16:24:33.484Z,4.35
2023-05-14T16:27:00.899Z,6.15
2023-05-14T16:29:27.957Z,3.58
2023-05-14T16:31:55.057Z,4.95
2023-05-14T16:34:22.059Z,5.35
2023-05-14T16:36:50.215Z,7.28
2023-05-14T16:39:17.398Z,2.92
2023-05-14T16:41:44.229Z,7.72
2023-05-14T16:44:11.144Z,7.68
2023-05-14T16:46:38.183Z,5.07
2023-05-14T16:49:05.138Z,5.88
2023-05-14T16:51:31.992Z,3.75
2023-05-14T16:53:58.789Z,8.05
2023-05-14T16:56:26.593Z,4.43
2023-05-14T16:58:53.547Z,4.45
2023-05-14T17:01:20.649Z,2.83
2023-05-14T17:03:47.522Z,4.65
2023-05-14T17:06:14.409Z,4.63
2023-05-14T17:08:42.383Z,4.80
2023-05-14T17:11:09.610Z,4.95
2023-05-14T17:13:36.423Z,3.85
2023-05-14T17:16:03.370Z,6.10
2023-05-14T17:18:30.640Z,5.88
2023-05-14T17:20:58.135Z,7.20
2023-05-14T17:23:24.964Z,5.20
2023-05-14T17:25:51.840Z,4.72
2023-05-14T17:28:18.712Z,4.07
2023-05-14T17:30:45.622Z,4.82
2023-05-14T17:33:12.492Z,4.10
2023-05-14T17:35:39.410Z,8.50
2023-05-14T17:38:06.414Z,4.22
2023-05-14T17:40:34.233Z,3.47
2023-05-14T17:43:01.202Z,9.68
2023-05-14T17:45:32.204Z,3.28
2023-05-14T17:48:03.553Z,7.25
2023-05-14T17:50:30.466Z,6.63
2023-05-14T17:52:57.303Z,5.72
2023-05-14T17:55:24.401Z,2.95
2023-05-14T17:57:51.486Z,5.32
2023-05-14T18:00:18.569Z,4.03
2023-05-14T18:02:45.530Z,5.38
2023-05-14T18:05:12.490Z,6.15
2023-05-14T18:07:39.473Z,5.88
2023-05-14T18:10:06.932Z,7.22
2023-05-14T18:12:33.750Z,5.15
2023-05-14T18:15:00.605Z,3.53
2023-05-14T18:17:27.511Z,5.93
2023-05-14T18:19:54.414Z,6.43
2023-05-14T18:22:21.640Z,5.82
2023-05-14T18:24:48.666Z,5.18
2023-05-14T18:27:15.686Z,5.03
2023-05-14T18:29:43.440Z,7.43
2023-05-14T18:32:10.277Z,6.20
2023-05-14T18:34:37.120Z,4.10
2023-05-14T18:37:03.979Z,4.97
2023-05-14T18:39:30.911Z,9.23
2023-05-14T18:41:57.776Z,5.13
2023-05-14T18:44:24.671Z,11.48
2023-05-14T18:46:51.882Z,13.02
2023-05-14T18:49:18.764Z,14.77
2023-05-14T18:51:45.680Z,16.95
2023-05-14T18:54:12.519Z,15.95
2023-05-14T18:56:45.380Z,16.20
2023-05-14T18:59:13.865Z,15.38
2023-05-14T19:01:40.677Z,18.30
2023-05-14T19:04:08.206Z,18.23
2023-05-14T19:06:36.204Z,17.77
2023-05-14T19:09:06.363Z,18.88
2023-05-14T19:11:33.259Z,16.88
2023-05-14T19:14:00.098Z,16.73
2023-05-14T19:16:27.262Z,22.27
2023-05-14T19:18:54.362Z,20.23
2023-05-14T19:21:21.208Z,17.20
2023-05-14T19:23:48.068Z,18.00
2023-05-14T19:26:15.891Z,17.88
2023-05-14T19:28:42.806Z,17.58
2023-05-14T19:31:09.728Z,16.17
2023-05-14T19:33:36.586Z,16.95
2023-05-14T19:36:03.941Z,17.13
2023-05-14T19:38:31.048Z,18.83
2023-05-14T19:40:57.963Z,17.98
2023-05-14T19:43:26.120Z,18.48
2023-05-14T19:45:53.058Z,19.02
2023-05-14T19:48:19.958Z,20.13
2023-05-14T19:50:47.335Z,19.48
2023-05-14T19:53:14.812Z,22.52
2023-05-14T19:55:41.796Z,17.52
2023-05-14T19:58:09.053Z,18.13
2023-05-14T20:00:37.030Z,21.35
2023-05-14T20:03:06.106Z,22.73
2023-05-14T20:05:34.278Z,20.52
2023-05-14T20:08:01.220Z,18.55
2023-05-14T20:10:28.364Z,21.42
2023-05-14T20:12:55.493Z,21.95
2023-05-14T20:15:22.395Z,25.08
2023-05-14T20:17:49.358Z,24.02
2023-05-14T20:20:20.986Z,22.35
2023-05-14T20:22:47.886Z,27.25
2023-05-14T20:25:14.775Z,27.50
2023-05-14T20:27:41.710Z,25.83
2023-05-14T20:30:10.408Z,24.15
2023-05-14T20:32:37.430Z,26.67
2023-05-14T20:35:04.670Z,30.95
2023-05-14T20:37:38.978Z,28.38
2023-05-14T20:40:06.608Z,27.95
2023-05-14T20:42:33.633Z,25.45
2023-05-14T20:45:00.656Z,27.75
2023-05-14T20:47:30.506Z,27.63
2023-05-14T20:49:57.446Z,26.35
2023-05-14T20:52:24.401Z,27.95
2023-05-14T20:54:51.288Z,28.98
2023-05-14T20:57:19.062Z,29.50
2023-05-14T20:59:46.662Z,26.73
2023-05-14T21:02:13.621Z,29.77
2023-05-14T21:04:41.058Z,32.08
2023-05-14T21:07:07.989Z,31.98
2023-05-14T21:09:34.863Z,32.55
2023-05-14T21:12:01.766Z,32.30
2023-05-14T21:14:28.704Z,32.80
2023-05-14T21:16:55.692Z,32.70
2023-05-14T21:19:23.289Z,32.50
2023-05-14T21:21:50.381Z,31.77
2023-05-14T21:24:17.271Z,32.25
2023-05-14T21:26:44.118Z,33.50
2023-05-14T21:29:11.339Z,34.28
2023-05-14T21:31:38.368Z,32.53
2023-05-14T21:34:05.395Z,32.60
2023-05-14T21:36:32.490Z,36.92
2023-05-14T21:38:59.339Z,36.10
2023-05-14T21:41:26.188Z,32.50
2023-05-14T21:44:00.112Z,36.80
2023-05-14T21:46:28.834Z,39.75
2023-05-14T21:48:56.892Z,34.03
2023-05-14T21:51:24.926Z,33.95
2023-05-14T21:53:51.813Z,33.40
2023-05-14T21:56:18.700Z,36.30
2023-05-14T21:58:45.643Z,37.58
2023-05-14T22:01:12.593Z,35.55
2023-05-14T22:03:39.555Z,37.55
2023-05-14T22:06:06.836Z,37.00
2023-05-14T22:08:33.726Z,36.40
2023-05-14T22:11:00.546Z,36.05
2023-05-14T22:13:27.357Z,35.75
2023-05-14T22:16:01.533Z,40.42
2023-05-14T22:18:36.627Z,37.25
2023-05-14T22:21:04.061Z,36.53
2023-05-14T22:23:30.964Z,36.03
2023-05-14T22:25:57.934Z,39.13
2023-05-14T22:28:24.778Z,37.08
2023-05-14T22:30:55.253Z,37.85
2023-05-14T22:33:22.523Z,41.67
2023-05-14T22:35:49.662Z,39.20
2023-05-14T22:38:16.520Z,44.88
2023-05-14T22:40:43.286Z,43.83
2023-05-14T22:43:10.155Z,39.45
2023-05-14T22:45:37.039Z,42.38
2023-05-14T22:48:04.104Z,46.15
2023-05-14T22:50:31.002Z,40.42
2023-05-14T22:52:57.862Z,47.67
2023-05-14T22:55:24.838Z,45.20
2023-05-14T22:57:51.815Z,45.53
2023-05-14T23:00:18.734Z,44.50
2023-05-14T23:02:45.676Z,47.42
2023-05-14T23:05:15.480Z,39.60
2023-05-14T23:07:42.461Z,45.03
2023-05-14T23:10:09.849Z,46.22
2023-05-14T23:12:36.696Z,44.90
2023-05-14T23:15:03.888Z,48.97
2023-05-14T23:17:30.967Z,43.95
2023-05-14T23:19:57.888Z,45.63
2023-05-14T23:22:24.788Z,43.80
2023-05-14T23:24:51.576Z,45.30
2023-05-14T23:27:18.428Z,46.05
2023-05-14T23:29:45.613Z,46.47
2023-05-14T23:32:12.936Z,46.08
2023-05-14T23:34:42.518Z,48.22
2023-05-14T23:37:09.554Z,43.10
2023-05-14T23:39:36.502Z,43.67
2023-05-14T23:42:03.410Z,45.88
2023-05-14T23:44:30.248Z,44.38
2023-05-14T23:46:57.144Z,43.83
2023-05-14T23:49:24.012Z,48.80
2023-05-14T23:51:50.929Z,50.67
2023-05-14T23:54:17.713Z,44.35
2023-05-14T23:56:44.673Z,51.90
2023-05-14T23:59:11.893Z,53.15
